Time;durP1;ratioP1;P1;durP2;ratioP2;P2;SDS_P1;SDS_P2;PMS_P1;PMS_P2;Temp;Humidity;BMP_temperature;BMP_pressure;BME280_temperature;BME280_humidity;BME280_pressure;Samples;Min_cycle;Max_cycle;Signal;HPM_P1;HPM_P2
2022/06/17 00:02:10;;;;;;;22.60;15.48;;;;;;;17.50;64.53;102236.78;5015636;28;20451;-49
2022/06/17 00:04:35;;;;;;;22.83;16.23;;;;;;;17.54;64.73;102231.38;5034151;28;20074;-51
2022/06/17 00:07:07;;;;;;;22.00;15.70;;;;;;;17.44;64.84;102222.09;5033519;28;20507;-50
2022/06/17 00:09:35;;;;;;;22.98;16.02;;;;;;;17.51;65.11;102234.84;5033645;28;20033;-49
2022/06/17 00:12:02;;;;;;;24.88;15.75;;;;;;;17.49;65.28;102229.53;5033596;28;20030;-48
2022/06/17 00:14:32;;;;;;;24.17;15.88;;;;;;;17.35;65.61;102209.22;5033624;28;20332;-48
2022/06/17 00:16:59;;;;;;;24.05;16.23;;;;;;;17.40;65.49;102223.91;5033503;28;20025;-48
2022/06/17 00:19:25;;;;;;;22.90;15.68;;;;;;;17.42;65.48;102230.00;5033542;28;20104;-48
2022/06/17 00:21:52;;;;;;;23.98;16.02;;;;;;;17.33;66.05;102233.88;5033376;28;20327;-48
2022/06/17 00:24:22;;;;;;;24.70;17.00;;;;;;;17.18;66.29;102227.53;5034049;28;20026;-48
2022/06/17 00:26:48;;;;;;;23.83;16.63;;;;;;;17.19;66.65;102237.59;5033909;28;20481;-48
2022/06/17 00:29:16;;;;;;;24.25;17.55;;;;;;;17.01;67.21;102225.44;5032729;28;20067;-48
2022/06/17 00:31:41;;;;;;;23.95;17.40;;;;;;;17.06;66.83;102242.06;5033771;28;20368;-48
2022/06/17 00:34:06;;;;;;;24.23;17.13;;;;;;;17.03;66.90;102247.47;5033904;28;20095;-51
2022/06/17 00:36:32;;;;;;;23.67;17.15;;;;;;;17.04;67.41;102229.56;5033515;28;20095;-49
2022/06/17 00:38:58;;;;;;;24.10;18.80;;;;;;;17.03;67.38;102225.09;5033951;28;20053;-49
2022/06/17 00:41:32;;;;;;;24.35;17.13;;;;;;;17.03;67.00;102244.66;5033707;28;20091;-50
2022/06/17 00:44:07;;;;;;;24.17;17.95;;;;;;;17.00;66.91;102232.97;5033742;28;20393;-49
2022/06/17 00:46:42;;;;;;;24.08;17.67;;;;;;;16.99;67.09;102241.69;5033760;28;20029;-50
2022/06/17 00:49:30;;;;;;;23.25;17.60;;;;;;;16.99;66.39;102241.69;5033077;28;20083;-51
2022/06/17 00:52:10;;;;;;;24.20;17.85;;;;;;;16.99;66.52;102241.69;5031834;28;20120;-48
2022/06/17 00:54:46;;;;;;;24.27;17.33;;;;;;;16.99;66.30;102239.75;5033338;28;20539;-49
2022/06/17 00:57:22;;;;;;;24.20;18.38;;;;;;;17.03;67.16;102237.13;5033040;28;20029;-49
2022/06/17 01:00:24;;;;;;;25.38;18.35;;;;;;;17.06;65.55;102233.69;5033691;28;20033;-50
2022/06/17 01:02:55;;;;;;;25.50;18.65;;;;;;;16.98;67.65;102249.25;4991606;28;20046;-51
2022/06/17 01:05:47;;;;;;;24.67;18.40;;;;;;;16.96;66.95;102245.09;5033093;28;20040;-49
2022/06/17 01:11:12;;;;;;;25.40;18.77;;;;;;;16.79;68.16;102240.19;5032227;28;20103;-48
2022/06/17 01:13:38;;;;;;;24.10;18.20;;;;;;;16.79;68.32;102243.78;5032770;28;20100;-51
2022/06/17 01:16:04;;;;;;;23.73;18.35;;;;;;;16.71;68.62;102238.94;5032182;28;20048;-49
2022/06/17 01:18:33;;;;;;;24.25;18.38;;;;;;;16.64;68.81;102244.97;5032618;28;20041;-48
2022/06/17 01:21:02;;;;;;;24.35;18.48;;;;;;;16.61;68.93;102240.03;5032112;28;20109;-49
2022/06/17 01:23:29;;;;;;;24.80;18.92;;;;;;;16.53;69.58;102237.97;5032436;28;20031;-51
2022/06/17 01:25:54;;;;;;;24.95;18.55;;;;;;;16.43;70.06;102243.78;5032230;28;20163;-48
2022/06/17 01:28:20;;;;;;;23.90;18.90;;;;;;;16.30;70.35;102239.81;5032382;28;20344;-50
2022/06/17 01:30:52;;;;;;;24.95;19.10;;;;;;;16.19;70.21;102231.69;5033022;28;20480;-48
2022/06/17 01:33:23;;;;;;;26.13;18.40;;;;;;;16.18;69.83;102220.81;5033219;28;20052;-50
2022/06/17 01:36:00;;;;;;;25.60;19.50;;;;;;;16.20;70.02;102235.28;5032585;28;20025;-50
2022/06/17 01:38:29;;;;;;;23.75;19.00;;;;;;;16.16;70.83;102237.03;5032492;28;20033;-48
2022/06/17 01:40:56;;;;;;;25.48;18.85;;;;;;;16.11;70.34;102220.41;5031871;28;20088;-48
2022/06/17 01:43:25;;;;;;;24.35;18.90;;;;;;;16.10;70.18;102219.59;5031974;28;20073;-49
2022/06/17 01:46:06;;;;;;;25.77;19.13;;;;;;;16.09;70.02;102229.09;5032272;28;20029;-48
2022/06/17 01:48:39;;;;;;;24.42;18.95;;;;;;;15.99;70.40;102220.94;5032203;28;20445;-49
2022/06/17 01:51:07;;;;;;;24.85;20.38;;;;;;;15.96;70.81;102241.09;5031911;28;20032;-48
2022/06/17 01:53:37;;;;;;;27.25;19.52;;;;;;;15.92;70.59;102232.50;5031943;28;20021;-49
2022/06/17 01:56:10;;;;;;;25.60;19.92;;;;;;;15.89;70.41;102239.53;5032382;28;20114;-50
2022/06/17 01:58:40;;;;;;;24.90;19.40;;;;;;;15.90;70.40;102240.34;5032232;28;20033;-53
2022/06/17 02:01:07;;;;;;;25.27;19.00;;;;;;;15.83;70.74;102226.78;5031690;28;20284;-52
2022/06/17 02:03:47;;;;;;;24.70;19.55;;;;;;;15.87;69.65;102229.81;5031782;28;20026;-51
2022/06/17 02:06:21;;;;;;;25.42;19.33;;;;;;;15.93;69.80;102241.69;5032141;28;20034;-51
2022/06/17 02:08:46;;;;;;;25.17;20.08;;;;;;;15.88;70.51;102246.25;5032605;28;20026;-52
2022/06/17 02:11:12;;;;;;;24.75;19.88;;;;;;;15.90;70.39;102245.94;5031489;28;20025;-52
2022/06/17 02:13:39;;;;;;;25.13;19.00;;;;;;;15.89;70.49;102244.28;5031848;28;20376;-51
2022/06/17 02:16:05;;;;;;;26.25;20.17;;;;;;;15.87;70.27;102241.00;5031947;28;20029;-48
2022/06/17 02:18:32;;;;;;;25.83;19.23;;;;;;;15.87;70.62;102241.00;5030959;28;20143;-49
2022/06/17 02:21:02;;;;;;;24.35;19.98;;;;;;;15.82;70.90;102239.06;5031871;28;20032;-48
2022/06/17 02:23:29;;;;;;;25.55;19.92;;;;;;;15.89;70.46;102238.69;5031712;28;20262;-49
2022/06/17 02:25:56;;;;;;;24.52;19.15;;;;;;;15.77;70.72;102230.00;5062874;23;20052;-56
2022/06/17 02:28:25;;;;;;;24.60;18.92;;;;;;;15.73;70.62;102226.97;5050478;28;20467;-55
2022/06/17 02:30:51;;;;;;;24.27;19.42;;;;;;;15.76;70.68;102237.50;5051154;28;20033;-57
2022/06/17 02:33:17;;;;;;;25.55;19.23;;;;;;;15.74;71.53;102248.16;5050458;28;20123;-56
2022/06/17 02:36:07;;;;;;;25.20;19.23;;;;;;;15.70;71.44;102234.00;5051149;28;20119;-56
2022/06/17 02:38:36;;;;;;;24.73;19.45;;;;;;;15.70;71.13;102235.97;5050514;28;20606;-56
2022/06/17 02:41:07;;;;;;;26.83;19.92;;;;;;;15.67;71.41;102231.00;5050573;28;20044;-55
2022/06/17 02:43:38;;;;;;;24.75;19.45;;;;;;;15.56;71.58;102224.78;5050612;28;20033;-56
2022/06/17 02:46:10;;;;;;;25.52;20.05;;;;;;;15.56;72.23;102227.56;5050774;28;20033;-56
2022/06/17 02:48:46;;;;;;;25.52;19.70;;;;;;;15.53;71.65;102233.75;5050794;28;20098;-56
2022/06/17 02:51:13;;;;;;;26.88;19.73;;;;;;;15.49;72.35;102224.34;5049963;28;20029;-57
2022/06/17 02:53:39;;;;;;;25.10;20.40;;;;;;;15.43;72.11;102232.78;5051015;28;20067;-57
2022/06/17 02:56:15;;;;;;;25.27;20.08;;;;;;;15.38;72.30;102224.53;5050863;28;20033;-57
2022/06/17 02:59:03;;;;;;;25.73;19.88;;;;;;;15.36;73.19;102229.59;5050403;28;20443;-56
2022/06/17 03:01:31;;;;;;;25.38;19.80;;;;;;;15.33;73.38;102230.19;5050630;28;20513;-57
2022/06/17 03:03:57;;;;;;;24.92;18.88;;;;;;;15.33;72.96;102230.19;5050585;28;20053;-57
2022/06/17 03:06:35;;;;;;;25.38;20.15;;;;;;;15.32;72.83;102227.72;5050443;28;20079;-57
2022/06/17 03:09:17;;;;;;;24.55;19.90;;;;;;;15.25;72.63;102217.78;5050345;28;20025;-58
2022/06/17 03:11:45;;;;;;;25.40;20.52;;;;;;;15.31;73.04;102223.25;5049612;28;20361;-57
2022/06/17 03:14:12;;;;;;;25.83;20.23;;;;;;;15.28;73.19;102222.72;5049843;28;20064;-57
2022/06/17 03:16:39;;;;;;;25.05;19.98;;;;;;;15.32;72.87;102225.72;5050392;28;20047;-56
2022/06/17 03:19:05;;;;;;;25.23;20.48;;;;;;;15.36;72.84;102229.59;5049891;28;20045;-57
2022/06/17 03:21:31;;;;;;;26.00;20.88;;;;;;;15.36;72.79;102239.88;5049955;28;20083;-58
2022/06/17 03:24:21;;;;;;;24.98;20.08;;;;;;;15.38;71.98;102237.63;5050134;28;20029;-57
2022/06/17 03:26:54;;;;;;;27.67;20.65;;;;;;;15.34;71.81;102231.84;5050526;28;20136;-57
2022/06/17 03:29:23;;;;;;;25.25;20.88;;;;;;;15.36;72.12;102234.31;5048890;28;20036;-58
2022/06/17 03:32:02;;;;;;;27.95;20.48;;;;;;;15.38;72.04;102235.69;5049790;28;20095;-57
2022/06/17 03:34:46;;;;;;;26.65;20.88;;;;;;;15.46;72.02;102253.66;5050692;28;20101;-56
2022/06/17 03:37:33;;;;;;;25.70;20.85;;;;;;;15.52;71.61;102258.03;5050393;28;20108;-56
2022/06/17 03:40:22;;;;;;;25.73;20.33;;;;;;;15.58;71.48;102265.16;5049909;28;20051;-57
2022/06/17 03:43:15;;;;;;;25.40;21.00;;;;;;;15.63;71.63;102267.03;5049923;28;20071;-57
2022/06/17 03:45:56;;;;;;;26.10;20.73;;;;;;;15.67;71.06;102256.09;5049651;28;20096;-55
2022/06/17 03:48:39;;;;;;;25.90;20.80;;;;;;;15.82;71.37;102263.34;5049579;28;20052;-54
2022/06/17 03:51:10;;;;;;;26.88;20.83;;;;;;;15.90;70.93;102263.53;5050010;28;20044;-58
2022/06/17 03:53:36;;;;;;;26.80;21.55;;;;;;;15.95;70.61;102257.00;5049776;28;20037;-56
2022/06/17 03:56:11;;;;;;;26.92;20.73;;;;;;;16.32;69.36;102265.47;5049629;28;20162;-58
2022/06/17 03:58:38;;;;;;;27.00;21.40;;;;;;;16.63;67.94;102253.66;5050115;28;20056;-57
2022/06/17 04:01:19;;;;;;;25.92;20.95;;;;;;;16.88;67.18;102263.44;5050069;28;20569;-57
2022/06/17 04:03:56;;;;;;;27.25;20.92;;;;;;;16.86;67.06;102262.91;5052454;28;20041;-58
2022/06/17 04:06:25;;;;;;;26.05;20.90;;;;;;;16.73;67.04;102252.59;5053293;28;20094;-57
2022/06/17 04:08:56;;;;;;;25.88;20.80;;;;;;;16.76;67.04;102257.56;5053082;28;20471;-56
2022/06/17 04:11:26;;;;;;;28.17;21.33;;;;;;;16.71;67.38;102257.69;5052636;28;20031;-56
2022/06/17 04:13:54;;;;;;;26.15;20.70;;;;;;;16.65;67.06;102256.97;5052924;28;20021;-56
2022/06/17 04:16:37;;;;;;;26.55;21.27;;;;;;;16.65;67.13;102268.16;5053254;28;20329;-56
2022/06/17 04:19:20;;;;;;;26.13;21.33;;;;;;;16.59;67.39;102263.78;5053858;28;20033;-57
2022/06/17 04:21:45;;;;;;;26.40;20.98;;;;;;;16.54;68.03;102259.16;5053484;28;20029;-58
2022/06/17 04:24:19;;;;;;;25.77;20.98;;;;;;;16.52;67.85;102259.47;5052988;28;20509;-56
2022/06/17 04:26:52;;;;;;;27.63;21.25;;;;;;;16.51;68.00;102260.59;5053007;28;20044;-57
2022/06/17 04:29:27;;;;;;;28.33;20.90;;;;;;;16.45;68.07;102235.88;5053127;28;20097;-55
2022/06/17 04:32:02;;;;;;;26.17;20.92;;;;;;;16.44;68.16;102243.44;5051110;28;20448;-56
2022/06/17 04:34:27;;;;;;;25.33;20.08;;;;;;;16.46;68.47;102248.72;5053112;28;20025;-58
2022/06/17 04:37:00;;;;;;;26.38;21.50;;;;;;;16.42;68.29;102239.31;5053356;28;20040;-58
2022/06/17 04:39:52;;;;;;;27.35;21.77;;;;;;;16.50;68.03;102244.16;5053301;28;20108;-58
2022/06/17 04:42:41;;;;;;;28.27;20.80;;;;;;;16.49;68.10;102239.72;5053177;28;20059;-56
2022/06/17 04:45:17;;;;;;;26.95;22.50;;;;;;;16.47;68.90;102236.41;5053382;28;20025;-53
2022/06/17 04:47:43;;;;;;;28.15;22.42;;;;;;;16.50;68.87;102239.41;5053015;28;20029;-54
2022/06/17 04:50:14;;;;;;;26.25;21.85;;;;;;;16.52;68.82;102237.13;5052717;28;20174;-57
2022/06/17 04:52:43;;;;;;;27.65;21.17;;;;;;;16.61;68.81;102241.97;5052723;28;20024;-57
2022/06/17 04:55:19;;;;;;;26.60;22.67;;;;;;;16.57;68.17;102227.81;5052907;28;20551;-56
2022/06/17 04:57:44;;;;;;;26.10;21.00;;;;;;;16.66;68.21;102233.50;5052895;28;20029;-56
2022/06/17 05:00:28;;;;;;;27.42;21.15;;;;;;;16.72;68.18;102235.00;5032978;28;20047;-53
2022/06/17 05:02:54;;;;;;;28.15;20.95;;;;;;;16.73;68.17;102235.81;5030928;28;20113;-54
2022/06/17 05:05:35;;;;;;;28.25;22.13;;;;;;;16.79;68.13;102229.00;5030604;28;20036;-54
2022/06/17 05:08:05;;;;;;;27.55;22.60;;;;;;;16.82;67.77;102236.72;5034617;28;20047;-54
2022/06/17 05:10:39;;;;;;;29.65;21.17;;;;;;;16.93;67.89;102234.53;5052587;28;20324;-54
2022/06/17 05:13:07;;;;;;;;;;;;;;;17.10;66.55;102240.31;5053003;28;20060;-54
2022/06/17 05:15:32;;;;;;;27.90;22.75;;;;;;;17.18;68.08;102235.09;5051817;28;19908;-56
2022/06/17 05:17:58;;;;;;;27.35;21.80;;;;;;;17.28;67.38;102229.25;5052748;28;20086;-57
2022/06/17 05:20:25;;;;;;;29.02;22.13;;;;;;;17.37;66.63;102223.72;5052520;28;20448;-57
2022/06/17 05:23:01;;;;;;;30.75;22.33;;;;;;;17.61;66.13;102223.38;5051240;28;20025;-55
2022/06/17 05:25:36;;;;;;;27.75;21.33;;;;;;;17.76;65.24;102213.69;5051169;28;20181;-55
2022/06/17 05:28:03;;;;;;;27.45;21.52;;;;;;;17.93;64.81;102216.59;5051648;28;20115;-57
2022/06/17 05:30:35;;;;;;;31.08;22.25;;;;;;;18.10;64.54;102223.44;5052271;28;20115;-56
2022/06/17 05:33:00;;;;;;;28.35;21.98;;;;;;;18.16;64.09;102227.72;5052092;28;20035;-56
2022/06/17 05:35:26;;;;;;;28.42;21.65;;;;;;;18.21;64.23;102216.41;5052138;28;20104;-56
2022/06/17 05:37:52;;;;;;;27.77;21.00;;;;;;;18.37;63.79;102215.94;5051914;28;20025;-54
2022/06/17 05:40:18;;;;;;;26.95;21.27;;;;;;;18.43;63.79;102222.19;5050530;28;20484;-56
2022/06/17 05:42:45;;;;;;;27.63;21.73;;;;;;;18.48;63.55;102230.44;5052031;28;20025;-59
2022/06/17 05:45:15;;;;;;;27.42;21.00;;;;;;;18.47;62.89;102238.03;5051881;28;20147;-56
2022/06/17 05:47:41;;;;;;;27.08;21.38;;;;;;;18.47;62.98;102243.63;5052053;28;20025;-56
2022/06/17 05:50:08;;;;;;;27.02;21.00;;;;;;;18.47;62.84;102238.03;5051867;28;20035;-56
2022/06/17 05:52:33;;;;;;;27.05;20.45;;;;;;;18.54;62.89;102235.56;5051897;28;20025;-57
2022/06/17 05:55:00;;;;;;;28.05;20.33;;;;;;;18.57;63.69;102224.88;5051934;28;20044;-57
2022/06/17 05:57:26;;;;;;;26.50;20.50;;;;;;;18.64;63.22;102219.59;5051918;28;20028;-56
2022/06/17 05:59:51;;;;;;;26.75;20.23;;;;;;;18.71;63.04;102212.34;5051736;28;20029;-56
2022/06/17 06:02:16;;;;;;;25.10;19.70;;;;;;;18.79;62.95;102207.91;5051689;28;20032;-56
2022/06/17 06:04:41;;;;;;;27.02;19.83;;;;;;;18.84;62.33;102204.13;5051824;28;20065;-57
2022/06/17 06:07:07;;;;;;;26.30;19.63;;;;;;;18.93;62.53;102202.16;5051557;28;20124;-57
2022/06/17 06:09:33;;;;;;;27.20;20.10;;;;;;;18.99;62.54;102200.84;5051954;28;20455;-57
2022/06/17 06:11:58;;;;;;;24.63;18.83;;;;;;;19.05;61.39;102209.06;5051751;28;20055;-56
2022/06/17 06:14:23;;;;;;;25.67;18.98;;;;;;;19.06;61.43;102197.53;5051650;28;20021;-56
2022/06/17 06:16:48;;;;;;;25.75;19.58;;;;;;;19.12;61.60;102190.59;5051591;28;20056;-57
2022/06/17 06:19:14;;;;;;;25.80;19.20;;;;;;;19.16;61.29;102196.34;5051485;28;20083;-57
2022/06/17 06:21:39;;;;;;;26.05;19.48;;;;;;;19.22;60.83;102182.97;5051294;28;20048;-57
2022/06/17 06:24:04;;;;;;;29.17;18.52;;;;;;;19.29;60.39;102184.13;5051543;28;20055;-57
2022/06/17 06:26:30;;;;;;;26.60;18.50;;;;;;;19.36;60.48;102180.81;5050443;28;20095;-56
2022/06/17 06:28:56;;;;;;;32.60;19.92;;;;;;;19.37;59.28;102178.81;5051574;28;20025;-56
2022/06/17 06:31:23;;;;;;;26.60;17.65;;;;;;;19.45;58.88;102192.84;5051423;28;20071;-57
2022/06/17 06:33:48;;;;;;;25.67;17.50;;;;;;;19.49;58.62;102202.22;5051296;28;20037;-57
2022/06/17 06:36:14;;;;;;;24.50;17.38;;;;;;;19.55;58.08;102196.44;5051153;28;20495;-57
2022/06/17 06:38:39;;;;;;;25.63;17.77;;;;;;;19.67;58.33;102209.78;5051042;28;20029;-55
2022/06/17 06:41:04;;;;;;;24.25;18.08;;;;;;;19.77;58.16;102204.59;5051102;28;20021;-55
2022/06/17 06:43:30;;;;;;;23.58;17.88;;;;;;;19.92;57.17;102216.47;5051376;28;20028;-55
2022/06/17 06:45:56;;;;;;;23.75;17.02;;;;;;;19.97;57.72;102205.03;5051078;28;20028;-57
2022/06/17 06:48:24;;;;;;;24.65;17.45;;;;;;;20.05;57.37;102206.16;5051247;28;20068;-57
2022/06/17 06:50:50;;;;;;;23.83;17.17;;;;;;;20.16;56.69;102200.97;5051122;28;20051;-57
2022/06/17 06:53:15;;;;;;;23.75;17.42;;;;;;;20.18;56.89;102193.84;5051018;28;20100;-57
2022/06/17 06:55:41;;;;;;;23.73;17.42;;;;;;;20.21;57.34;102204.41;5051073;28;20452;-57
2022/06/17 06:58:14;;;;;;;26.75;17.33;;;;;;;20.16;57.12;102195.34;5051805;28;20146;-56
2022/06/17 07:00:45;;;;;;;25.07;18.03;;;;;;;20.21;57.56;102204.41;5051344;28;20100;-57
2022/06/17 07:03:14;;;;;;;23.40;16.23;;;;;;;20.24;57.09;102200.94;5051591;28;20051;-56
2022/06/17 07:05:42;;;;;;;27.42;17.92;;;;;;;20.24;57.28;102205.72;5051205;28;20135;-56
2022/06/17 07:08:11;;;;;;;23.85;17.63;;;;;;;20.37;56.66;102196.22;5051366;28;20090;-56
2022/06/17 07:10:36;;;;;;;25.98;17.45;;;;;;;20.62;56.71;102209.63;5051255;28;20456;-56
2022/06/17 07:13:03;;;;;;;25.05;17.92;;;;;;;20.78;55.86;102207.84;5051223;28;20064;-57
2022/06/17 07:15:29;;;;;;;24.73;17.20;;;;;;;20.93;56.02;102211.19;5051186;28;20029;-56
2022/06/17 07:17:59;;;;;;;24.23;17.80;;;;;;;21.07;55.03;102213.72;5051358;28;20037;-55
2022/06/17 07:20:26;;;;;;;25.48;18.00;;;;;;;21.27;55.09;102201.59;5051002;28;20468;-56
2022/06/17 07:22:52;;;;;;;24.55;17.52;;;;;;;21.42;54.57;102208.56;5051042;28;20033;-55
2022/06/17 07:25:19;;;;;;;24.67;18.17;;;;;;;21.57;54.27;102206.25;5050797;28;20471;-56
2022/06/17 07:27:44;;;;;;;24.15;17.20;;;;;;;21.69;54.23;102189.38;5051178;28;20029;-57
2022/06/17 07:30:20;;;;;;;23.52;16.90;;;;;;;21.76;53.81;102188.81;5050944;28;20066;-56
2022/06/17 07:32:45;;;;;;;23.83;16.05;;;;;;;21.76;52.02;102183.19;5051051;28;20029;-56
2022/06/17 07:35:12;;;;;;;23.02;16.77;;;;;;;21.73;52.15;102181.91;5049692;28;20021;-57
2022/06/17 07:40:21;;;;;;;28.85;17.00;;;;;;;21.85;53.02;102194.34;5055618;28;20087;-56
2022/06/17 07:42:46;;;;;;;23.73;16.27;;;;;;;21.88;52.01;102191.66;5055080;28;20017;-57
2022/06/17 07:45:17;;;;;;;22.50;15.90;;;;;;;21.94;51.84;102198.69;5054957;28;20112;-55
2022/06/17 07:47:44;;;;;;;22.13;15.75;;;;;;;22.05;51.97;102204.69;5055171;28;20033;-55
2022/06/17 07:50:15;;;;;;;21.48;15.68;;;;;;;22.05;50.99;102217.94;5055049;28;20119;-55
2022/06/17 07:52:40;;;;;;;22.10;15.90;;;;;;;22.09;50.84;102224.53;5055474;28;20055;-56
2022/06/17 07:55:07;;;;;;;22.83;15.73;;;;;;;22.09;50.28;102221.72;5055089;28;20056;-56
2022/06/17 07:57:33;;;;;;;22.77;15.55;;;;;;;22.01;50.10;102220.66;5054848;28;20032;-56
2022/06/17 07:59:58;;;;;;;22.10;15.23;;;;;;;22.05;50.24;102206.66;5054719;28;20414;-55
2022/06/17 08:02:24;;;;;;;22.42;15.00;;;;;;;22.17;50.29;102200.19;5054767;28;20121;-56
2022/06/17 08:04:50;;;;;;;21.48;14.73;;;;;;;22.29;49.88;102201.00;5054601;28;20104;-55
2022/06/17 08:07:15;;;;;;;21.55;14.77;;;;;;;22.43;49.68;102197.03;5053346;28;20059;-56
2022/06/17 08:09:42;;;;;;;22.48;14.25;;;;;;;22.57;49.81;102197.47;5054604;28;20029;-56
2022/06/17 08:12:11;;;;;;;23.40;14.73;;;;;;;22.75;49.25;102203.66;5054432;28;20029;-56
2022/06/17 08:14:37;;;;;;;20.80;13.02;;;;;;;22.83;47.79;102215.97;5054766;28;20104;-56
2022/06/17 08:17:03;;;;;;;19.95;13.05;;;;;;;22.82;46.69;102219.97;5054452;28;20114;-56
2022/06/17 08:19:28;;;;;;;20.55;13.35;;;;;;;;;;5054628;28;20467;-57
2022/06/17 08:21:53;;;;;;;20.57;12.73;;;;;;;23.00;47.17;102228.94;5054490;28;20480;-55
2022/06/17 08:24:19;;;;;;;20.23;12.70;;;;;;;23.24;46.51;102220.78;5054124;28;20642;-55
2022/06/17 08:26:44;;;;;;;19.67;12.82;;;;;;;23.40;46.44;102224.44;5052801;28;20045;-55
2022/06/17 08:29:10;;;;;;;18.98;12.40;;;;;;;23.61;46.69;102223.38;5052990;28;20025;-56
2022/06/17 08:31:35;;;;;;;19.80;13.00;;;;;;;23.78;46.07;102227.84;5054324;28;20336;-56
2022/06/17 08:34:01;;;;;;;21.05;12.77;;;;;;;23.90;46.58;102222.09;5053024;28;20029;-56
2022/06/17 08:36:28;;;;;;;20.00;12.95;;;;;;;23.82;45.13;102212.63;5054141;28;20033;-57
2022/06/17 08:38:59;;;;;;;19.85;13.07;;;;;;;23.87;45.38;102213.53;5054208;28;20029;-57
2022/06/17 08:41:33;;;;;;;19.48;12.45;;;;;;;23.96;45.67;102212.19;5054276;28;20423;-56
2022/06/17 08:44:16;;;;;;;20.45;12.40;;;;;;;23.99;45.79;102202.19;5054133;28;20454;-56
2022/06/17 08:46:56;;;;;;;18.57;12.23;;;;;;;24.02;45.50;102192.94;5054155;28;20488;-56
2022/06/17 08:49:54;;;;;;;19.90;11.88;;;;;;;24.13;45.93;102193.22;5052879;28;20029;-56
2022/06/17 08:52:51;;;;;;;19.10;12.18;;;;;;;24.05;44.10;102191.38;5053729;28;20105;-56
2022/06/17 08:55:38;;;;;;;22.70;12.65;;;;;;;24.09;44.93;102192.31;5050554;28;20048;-56
2022/06/17 08:58:24;;;;;;;20.70;12.90;;;;;;;24.01;44.72;102205.44;5053759;28;20125;-57
2022/06/17 09:01:03;;;;;;;20.77;12.80;;;;;;;23.97;45.16;102207.38;5053827;28;20033;-56
2022/06/17 09:03:49;;;;;;;19.63;12.23;;;;;;;23.91;44.56;102209.63;5053880;28;20029;-57
2022/06/17 09:06:37;;;;;;;19.60;11.75;;;;;;;23.82;44.59;102206.16;5053532;28;20063;-57
2022/06/17 09:09:34;;;;;;;20.27;12.27;;;;;;;23.85;44.73;102211.09;5053424;28;20375;-57
2022/06/17 09:12:46;;;;;;;19.17;11.40;;;;;;;23.87;43.64;102210.72;5046596;28;20102;-56
2022/06/17 09:15:11;;;;;;;19.80;11.00;;;;;;;23.95;42.95;102219.03;5053569;28;20446;-56
2022/06/17 09:17:45;;;;;;;18.30;11.17;;;;;;;24.07;41.93;102204.00;5053447;28;20112;-55
2022/06/17 09:20:17;;;;;;;18.85;10.52;;;;;;;24.36;42.41;102192.50;5053683;28;20267;-56
2022/06/17 09:22:49;;;;;;;17.70;10.18;;;;;;;24.45;40.94;102185.47;5053413;28;20028;-57
2022/06/17 09:25:19;;;;;;;17.30;10.18;;;;;;;24.68;39.43;102189.63;5053185;28;20036;-57
2022/06/17 09:27:52;;;;;;;18.45;10.48;;;;;;;24.81;40.21;102190.28;5053602;28;20107;-57
2022/06/17 09:30:20;;;;;;;18.70;10.30;;;;;;;24.97;39.98;102187.38;5053288;28;20039;-56
2022/06/17 09:32:52;;;;;;;17.13;9.57;;;;;;;25.25;40.42;102191.97;5053096;28;20032;-56
2022/06/17 09:35:25;;;;;;;17.83;10.20;;;;;;;25.33;39.08;102193.72;5052989;28;20038;-55
2022/06/17 09:38:00;;;;;;;17.90;10.18;;;;;;;25.32;38.34;102187.22;5053365;28;20029;-56
2022/06/17 09:40:42;;;;;;;16.10;9.90;;;;;;;25.43;38.55;102184.63;5053254;28;20369;-57
2022/06/17 09:43:17;;;;;;;17.50;10.27;;;;;;;25.30;38.07;102195.31;5053659;28;20021;-57
2022/06/17 09:45:57;;;;;;;17.50;10.07;;;;;;;25.40;39.41;102201.56;5052966;28;20033;-56
2022/06/17 09:48:28;;;;;;;16.65;10.00;;;;;;;25.56;37.88;102195.75;5051595;28;20359;-57
2022/06/17 09:51:01;;;;;;;18.88;10.35;;;;;;;25.56;37.07;102201.44;5053249;28;20043;-57
2022/06/17 09:53:39;;;;;;;18.90;10.10;;;;;;;25.67;38.03;102199.63;5053260;28;20040;-57
2022/06/17 09:56:12;;;;;;;18.15;10.10;;;;;;;25.87;37.84;102188.19;5052889;28;20420;-55
2022/06/17 09:59:13;;;;;;;18.73;9.90;;;;;;;26.09;36.62;102197.88;5052776;28;20032;-56
2022/06/17 10:01:42;;;;;;;17.45;10.00;;;;;;;26.13;37.20;102193.09;5050766;28;20435;-56
2022/06/17 10:04:08;;;;;;;16.38;9.93;;;;;;;26.28;36.57;102191.28;5052589;28;20091;-56
2022/06/17 10:06:57;;;;;;;18.42;10.35;;;;;;;26.30;36.16;102195.38;5052421;28;20021;-55
2022/06/17 10:09:28;;;;;;;18.00;9.63;;;;;;;26.44;36.19;102186.25;5052500;28;20539;-57
2022/06/17 10:12:09;;;;;;;17.40;9.63;;;;;;;26.49;36.15;102178.63;5052694;28;20029;-57
2022/06/17 10:14:42;;;;;;;17.98;10.20;;;;;;;26.63;35.42;102164.59;5051034;28;20452;-57
2022/06/17 10:20:30;;;;;;;18.42;10.43;;;;;;;26.78;35.45;102162.78;5052167;28;20036;-55
2022/06/17 10:23:39;;;;;;;18.30;10.45;;;;;;;26.93;36.23;102163.78;5050868;28;20036;-56
2022/06/17 10:26:31;;;;;;;19.17;10.15;;;;;;;26.93;34.96;102156.06;5052074;28;20041;-56
2022/06/17 10:29:22;;;;;;;16.50;9.55;;;;;;;26.92;35.38;102157.25;5052152;28;20035;-56
2022/06/17 10:31:48;;;;;;;18.02;10.48;;;;;;;26.85;33.45;102145.84;5052028;28;20492;-57
2022/06/17 10:34:18;;;;;;;19.00;10.35;;;;;;;26.66;33.08;102155.31;5051959;28;20036;-56
2022/06/17 10:36:45;;;;;;;16.52;10.15;;;;;;;26.64;34.85;102143.53;5051944;28;20025;-56
2022/06/17 10:39:14;;;;;;;17.88;10.60;;;;;;;26.77;34.13;102144.13;5051957;28;20472;-57
2022/06/17 10:41:40;;;;;;;19.17;11.02;;;;;;;26.73;33.98;102141.22;5051826;28;20064;-55
2022/06/17 10:44:09;;;;;;;18.23;10.45;;;;;;;27.00;35.65;102146.00;5051630;28;20056;-56
2022/06/17 10:46:39;;;;;;;18.08;10.13;;;;;;;27.25;34.83;102152.75;5051886;28;20536;-57
2022/06/17 10:49:18;;;;;;;19.27;11.00;;;;;;;27.44;34.68;102153.75;5051983;28;20464;-56
2022/06/17 10:51:47;;;;;;;19.13;10.73;;;;;;;27.54;34.39;102133.16;5052386;28;20083;-58
2022/06/17 10:54:21;;;;;;;18.98;9.95;;;;;;;27.74;33.35;102140.59;5051773;28;20029;-57
2022/06/17 10:57:04;;;;;;;16.67;8.95;;;;;;;27.71;33.42;102142.22;5051538;28;20032;-57
2022/06/17 10:59:43;;;;;;;19.02;10.00;;;;;;;27.79;33.90;102126.84;5051716;28;20115;-56
2022/06/17 11:02:21;;;;;;;16.67;9.57;;;;;;;28.05;34.13;102133.53;5052275;28;20067;-58
2022/06/17 11:04:58;;;;;;;17.90;9.90;;;;;;;28.21;34.03;102129.56;5052526;28;20112;-58
2022/06/17 11:07:30;;;;;;;19.10;10.50;;;;;;;28.14;33.47;102128.31;5052717;28;20024;-59
2022/06/17 11:10:00;;;;;;;17.13;9.77;;;;;;;28.28;34.04;102123.91;5052528;28;20094;-57
2022/06/17 11:12:34;;;;;;;16.38;9.50;;;;;;;28.43;34.29;102116.25;5052816;28;20363;-58
2022/06/17 11:15:05;;;;;;;17.50;9.07;;;;;;;28.55;33.47;102113.06;5056060;28;20032;-57
2022/06/17 11:17:42;;;;;;;16.10;9.27;;;;;;;28.59;32.44;102095.97;5056935;28;20081;-57
2022/06/17 11:20:24;;;;;;;16.77;9.60;;;;;;;28.64;33.26;102104.13;5054892;28;20029;-58
2022/06/17 11:22:54;;;;;;;16.70;9.93;;;;;;;28.73;32.65;102100.94;5056561;28;20387;-57
2022/06/17 11:25:24;;;;;;;19.42;9.68;;;;;;;28.77;33.05;102102.56;5055625;28;20053;-56
2022/06/17 11:27:56;;;;;;;18.23;9.60;;;;;;;28.90;33.69;102097.31;5056098;28;20029;-57
2022/06/17 11:30:34;;;;;;;16.58;9.45;;;;;;;28.68;31.42;102095.59;5055500;28;20025;-57
2022/06/17 11:33:01;;;;;;;15.80;9.40;;;;;;;28.49;31.66;102086.19;5055602;28;20067;-56
2022/06/17 11:35:32;;;;;;;17.38;9.30;;;;;;;28.47;32.06;102083.75;5055341;28;20104;-56
2022/06/17 11:37:58;;;;;;;16.52;8.90;;;;;;;28.47;31.27;102086.59;5055356;28;20392;-56
2022/06/17 11:40:27;;;;;;;18.38;9.55;;;;;;;28.49;32.78;102075.63;5054994;28;20049;-58
2022/06/17 11:43:06;;;;;;;15.05;9.00;;;;;;;28.70;33.25;102071.22;5054806;28;20025;-55